sensor_id;sensor_type;location;lat;lon;timestamp;pressure;altitude;pressure_sealevel;temperature;humidity
40155;BME280;25875;48.202;16.334;2023-02-18T00:00:27;99357.31;;;11.96;59.88
40155;BME280;25875;48.202;16.334;2023-02-18T00:02:54;99291.22;;;11.33;59.96
40155;BME280;25875;48.202;16.334;2023-02-18T00:05:22;99382.69;;;12.01;59.61
40155;BME280;25875;48.202;16.334;2023-02-18T00:07:49;99367.63;;;12.02;59.90
40155;BME280;25875;48.202;16.334;2023-02-18T00:10:16;99342.91;;;11.85;59.44
40155;BME280;25875;48.202;16.334;2023-02-18T00:12:43;99366.66;;;12.03;59.76
40155;BME280;25875;48.202;16.334;2023-02-18T00:15:10;99363.38;;;11.83;59.74
40155;BME280;25875;48.202;16.334;2023-02-18T00:17:37;99376.25;;;12.05;59.59
40155;BME280;25875;48.202;16.334;2023-02-18T00:20:06;99372.56;;;12.08;59.36
40155;BME280;25875;48.202;16.334;2023-02-18T00:22:34;99369.91;;;12.08;59.36
40155;BME280;25875;48.202;16.334;2023-02-18T00:25:01;99367.16;;;12.09;59.32
40155;BME280;25875;48.202;16.334;2023-02-18T00:27:28;99367.16;;;12.09;59.63
40155;BME280;25875;48.202;16.334;2023-02-18T00:29:55;99353.91;;;11.94;59.40
40155;BME280;25875;48.202;16.334;2023-02-18T00:32:23;99396.28;;;12.11;59.42
40155;BME280;25875;48.202;16.334;2023-02-18T00:34:50;99377.59;;;12.12;59.81
40155;BME280;25875;48.202;16.334;2023-02-18T00:37:16;99375.78;;;12.13;59.38
40155;BME280;25875;48.202;16.334;2023-02-18T00:39:44;99377.50;;;12.14;59.54
40155;BME280;25875;48.202;16.334;2023-02-18T00:42:11;99386.22;;;12.16;59.35
40155;BME280;25875;48.202;16.334;2023-02-18T00:44:38;99383.56;;;12.16;59.32
40155;BME280;25875;48.202;16.334;2023-02-18T00:47:05;99380.16;;;12.14;59.65
40155;BME280;25875;48.202;16.334;2023-02-18T00:49:32;99379.47;;;12.10;59.50
40155;BME280;25875;48.202;16.334;2023-02-18T00:51:59;99396.47;;;12.08;59.62
40155;BME280;25875;48.202;16.334;2023-02-18T00:54:26;99369.72;;;12.11;59.80
40155;BME280;25875;48.202;16.334;2023-02-18T00:56:54;99393.53;;;12.12;59.72
40155;BME280;25875;48.202;16.334;2023-02-18T00:59:21;99412.97;;;12.13;59.80
40155;BME280;25875;48.202;16.334;2023-02-18T01:01:48;99405.09;;;12.11;59.71
40155;BME280;25875;48.202;16.334;2023-02-18T01:04:14;99350.09;;;11.83;59.72
40155;BME280;25875;48.202;16.334;2023-02-18T01:06:41;99323.25;;;11.74;59.65
40155;BME280;25875;48.202;16.334;2023-02-18T01:09:09;99374.63;;;12.03;59.79
40155;BME280;25875;48.202;16.334;2023-02-18T01:11:36;99376.44;;;12.02;59.52
40155;BME280;25875;48.202;16.334;2023-02-18T01:14:04;99400.53;;;12.13;59.85
40155;BME280;25875;48.202;16.334;2023-02-18T01:16:31;99390.00;;;12.12;59.58
40155;BME280;25875;48.202;16.334;2023-02-18T01:18:58;99377.78;;;12.09;60.00
40155;BME280;25875;48.202;16.334;2023-02-18T01:21:24;99393.81;;;12.08;60.16
40155;BME280;25875;48.202;16.334;2023-02-18T01:23:51;99393.72;;;12.09;60.11
40155;BME280;25875;48.202;16.334;2023-02-18T01:26:18;99340.88;;;11.75;60.10
40155;BME280;25875;48.202;16.334;2023-02-18T01:28:45;99366.34;;;11.93;60.16
40155;BME280;25875;48.202;16.334;2023-02-18T01:31:15;99385.75;;;12.09;60.00
40155;BME280;25875;48.202;16.334;2023-02-18T01:33:43;99383.94;;;12.10;60.08
40155;BME280;25875;48.202;16.334;2023-02-18T01:36:10;99364.41;;;12.11;60.07
40155;BME280;25875;48.202;16.334;2023-02-18T01:38:37;99391.72;;;12.13;59.99
40155;BME280;25875;48.202;16.334;2023-02-18T01:41:04;99366.00;;;12.13;60.10
40155;BME280;25875;48.202;16.334;2023-02-18T01:43:32;99371.22;;;12.15;59.78
40155;BME280;25875;48.202;16.334;2023-02-18T01:46:04;99376.53;;;12.15;60.03
40155;BME280;25875;48.202;16.334;2023-02-18T01:48:35;99337.69;;;11.98;59.84
40155;BME280;25875;48.202;16.334;2023-02-18T01:51:07;99359.41;;;12.21;59.61
40155;BME280;25875;48.202;16.334;2023-02-18T01:53:38;99311.78;;;11.87;59.95
40155;BME280;25875;48.202;16.334;2023-02-18T01:56:09;99372.78;;;12.19;59.94
40155;BME280;25875;48.202;16.334;2023-02-18T01:58:37;99374.31;;;12.23;59.94
40155;BME280;25875;48.202;16.334;2023-02-18T02:01:04;99261.69;;;11.53;59.81
40155;BME280;25875;48.202;16.334;2023-02-18T02:03:33;99363.66;;;12.23;60.00
40155;BME280;25875;48.202;16.334;2023-02-18T02:06:00;99370.78;;;12.23;59.86
40155;BME280;25875;48.202;16.334;2023-02-18T02:08:27;99379.63;;;12.23;59.93
40155;BME280;25875;48.202;16.334;2023-02-18T02:11:06;99369.06;;;12.22;59.82
40155;BME280;25875;48.202;16.334;2023-02-18T02:13:58;99372.41;;;12.25;60.02
40155;BME280;25875;48.202;16.334;2023-02-18T02:16:32;99371.53;;;12.25;59.88
40155;BME280;25875;48.202;16.334;2023-02-18T02:19:18;99373.34;;;12.24;60.10
40155;BME280;25875;48.202;16.334;2023-02-18T02:25:06;99367.28;;;12.22;60.25
40155;BME280;25875;48.202;16.334;2023-02-18T02:28:00;99364.53;;;12.24;60.01
40155;BME280;25875;48.202;16.334;2023-02-18T02:31:02;99353.22;;;12.20;60.15
40155;BME280;25875;48.202;16.334;2023-02-18T02:33:51;99361.31;;;12.18;60.25
40155;BME280;25875;48.202;16.334;2023-02-18T02:36:28;99363.88;;;12.20;59.92
40155;BME280;25875;48.202;16.334;2023-02-18T02:39:01;99370.13;;;12.19;59.98
40155;BME280;25875;48.202;16.334;2023-02-18T02:41:45;99342.66;;;12.04;60.16
40155;BME280;25875;48.202;16.334;2023-02-18T02:44:19;99330.34;;;12.03;60.01
40155;BME280;25875;48.202;16.334;2023-02-18T02:46:50;99342.75;;;12.03;60.01
40155;BME280;25875;48.202;16.334;2023-02-18T02:49:27;99195.09;;;11.13;60.10
40155;BME280;25875;48.202;16.334;2023-02-18T02:52:02;99361.84;;;12.09;60.19
40155;BME280;25875;48.202;16.334;2023-02-18T02:54:31;99381.84;;;12.15;60.11
40155;BME280;25875;48.202;16.334;2023-02-18T02:57:05;99381.00;;;12.14;59.96
40155;BME280;25875;48.202;16.334;2023-02-18T02:59:34;99386.31;;;12.14;60.29
40155;BME280;25875;48.202;16.334;2023-02-18T03:02:13;99381.09;;;12.13;60.43
40155;BME280;25875;48.202;16.334;2023-02-18T03:04:53;99370.66;;;12.10;60.16
40155;BME280;25875;48.202;16.334;2023-02-18T03:10:31;99361.06;;;12.07;60.70
40155;BME280;25875;48.202;16.334;2023-02-18T03:13:07;99363.72;;;12.07;60.43
40155;BME280;25875;48.202;16.334;2023-02-18T03:15:38;99371.69;;;12.07;60.56
40155;BME280;25875;48.202;16.334;2023-02-18T03:18:15;99367.25;;;12.08;60.40
40155;BME280;25875;48.202;16.334;2023-02-18T03:20:49;99362.78;;;12.08;60.67
40155;BME280;25875;48.202;16.334;2023-02-18T03:23:24;99311.50;;;11.78;60.33
40155;BME280;25875;48.202;16.334;2023-02-18T03:25:53;99335.63;;;12.03;60.28
40155;BME280;25875;48.202;16.334;2023-02-18T03:28:22;99347.78;;;12.07;60.22
40155;BME280;25875;48.202;16.334;2023-02-18T03:30:52;99376.34;;;12.04;60.29
40155;BME280;25875;48.202;16.334;2023-02-18T03:33:26;99359.38;;;12.06;60.66
40155;BME280;25875;48.202;16.334;2023-02-18T03:35:55;99330.28;;;11.89;60.45
40155;BME280;25875;48.202;16.334;2023-02-18T03:38:28;99358.69;;;12.03;60.58
40155;BME280;25875;48.202;16.334;2023-02-18T03:40:57;99365.81;;;12.02;60.54
40155;BME280;25875;48.202;16.334;2023-02-18T03:43:24;99365.91;;;12.01;60.77
40155;BME280;25875;48.202;16.334;2023-02-18T03:45:51;99369.31;;;12.03;60.75
40155;BME280;25875;48.202;16.334;2023-02-18T03:48:18;99337.78;;;11.82;60.85
40155;BME280;25875;48.202;16.334;2023-02-18T03:50:45;99364.25;;;11.98;60.63
40155;BME280;25875;48.202;16.334;2023-02-18T03:53:12;99358.94;;;11.98;60.78
40155;BME280;25875;48.202;16.334;2023-02-18T03:55:40;99368.56;;;12.01;60.83
40155;BME280;25875;48.202;16.334;2023-02-18T03:58:07;99365.97;;;11.99;60.70
40155;BME280;25875;48.202;16.334;2023-02-18T04:00:34;99382.84;;;11.98;60.65
40155;BME280;25875;48.202;16.334;2023-02-18T04:03:01;99368.72;;;11.98;60.82
40155;BME280;25875;48.202;16.334;2023-02-18T04:05:28;99353.69;;;11.82;60.60
40155;BME280;25875;48.202;16.334;2023-02-18T04:07:55;99377.63;;;11.97;60.80
40155;BME280;25875;48.202;16.334;2023-02-18T04:10:21;99380.47;;;11.94;60.71
40155;BME280;25875;48.202;16.334;2023-02-18T04:12:49;99384.16;;;11.91;60.79
40155;BME280;25875;48.202;16.334;2023-02-18T04:15:16;99387.75;;;11.90;60.83
40155;BME280;25875;48.202;16.334;2023-02-18T04:17:43;99386.91;;;11.89;60.95
40155;BME280;25875;48.202;16.334;2023-02-18T04:20:10;99386.91;;;11.89;60.69
40155;BME280;25875;48.202;16.334;2023-02-18T04:22:37;99385.19;;;11.88;60.69
40155;BME280;25875;48.202;16.334;2023-02-18T04:25:05;99389.66;;;11.88;61.03
40155;BME280;25875;48.202;16.334;2023-02-18T04:27:32;99381.69;;;11.88;60.97
40155;BME280;25875;48.202;16.334;2023-02-18T04:30:00;99384.34;;;11.88;60.62
40155;BME280;25875;48.202;16.334;2023-02-18T04:32:26;99385.19;;;11.88;60.73
40155;BME280;25875;48.202;16.334;2023-02-18T04:34:53;99335.56;;;11.61;60.81
40155;BME280;25875;48.202;16.334;2023-02-18T04:37:20;99375.31;;;11.76;60.88
40155;BME280;25875;48.202;16.334;2023-02-18T04:39:47;99395.91;;;11.87;60.72
40155;BME280;25875;48.202;16.334;2023-02-18T04:42:13;99396.78;;;11.87;60.52
40155;BME280;25875;48.202;16.334;2023-02-18T04:44:40;99399.53;;;11.86;60.72
40155;BME280;25875;48.202;16.334;2023-02-18T04:47:08;99401.03;;;11.90;60.48
40155;BME280;25875;48.202;16.334;2023-02-18T04:49:36;99400.28;;;11.88;60.56
40155;BME280;25875;48.202;16.334;2023-02-18T04:52:03;99400.28;;;11.88;60.61
40155;BME280;25875;48.202;16.334;2023-02-18T04:54:30;99419.81;;;11.87;60.87
40155;BME280;25875;48.202;16.334;2023-02-18T04:56:56;99387.16;;;11.71;60.43
40155;BME280;25875;48.202;16.334;2023-02-18T04:59:23;99409.19;;;11.87;60.78
40155;BME280;25875;48.202;16.334;2023-02-18T05:01:50;99409.28;;;11.85;60.48
40155;BME280;25875;48.202;16.334;2023-02-18T05:04:18;99414.50;;;11.87;60.78
40155;BME280;25875;48.202;16.334;2023-02-18T05:06:46;99412.72;;;11.87;60.44
40155;BME280;25875;48.202;16.334;2023-02-18T05:09:13;99394.53;;;11.66;60.52
40155;BME280;25875;48.202;16.334;2023-02-18T05:11:42;99433.19;;;11.85;60.55
40155;BME280;25875;48.202;16.334;2023-02-18T05:14:09;99433.00;;;11.88;60.39
40155;BME280;25875;48.202;16.334;2023-02-18T05:16:36;99437.38;;;11.89;60.38
40155;BME280;25875;48.202;16.334;2023-02-18T05:19:03;99413.34;;;11.77;60.42
40155;BME280;25875;48.202;16.334;2023-02-18T05:21:31;99428.28;;;11.94;60.32
40155;BME280;25875;48.202;16.334;2023-02-18T05:23:58;99442.41;;;11.94;60.28
40155;BME280;25875;48.202;16.334;2023-02-18T05:26:25;99437.19;;;11.93;60.49
40155;BME280;25875;48.202;16.334;2023-02-18T05:28:52;99442.50;;;11.93;60.30
40155;BME280;25875;48.202;16.334;2023-02-18T05:31:19;99449.59;;;11.92;60.41
40155;BME280;25875;48.202;16.334;2023-02-18T05:33:45;99419.50;;;11.77;60.24
40155;BME280;25875;48.202;16.334;2023-02-18T05:36:12;99447.81;;;11.93;60.45
40155;BME280;25875;48.202;16.334;2023-02-18T05:38:40;99378.66;;;11.50;60.43
40155;BME280;25875;48.202;16.334;2023-02-18T05:41:07;99435.84;;;11.85;60.52
40155;BME280;25875;48.202;16.334;2023-02-18T05:43:34;99442.50;;;11.93;60.58
40155;BME280;25875;48.202;16.334;2023-02-18T05:46:21;99454.94;;;11.92;60.31
40155;BME280;25875;48.202;16.334;2023-02-18T05:48:48;99452.19;;;11.94;60.26
40155;BME280;25875;48.202;16.334;2023-02-18T05:51:15;99459.19;;;11.95;60.24
40155;BME280;25875;48.202;16.334;2023-02-18T05:53:43;99427.28;;;11.80;60.65
40155;BME280;25875;48.202;16.334;2023-02-18T05:56:10;99455.78;;;11.93;60.50
40155;BME280;25875;48.202;16.334;2023-02-18T05:58:36;99450.38;;;11.94;60.53
40155;BME280;25875;48.202;16.334;2023-02-18T06:01:03;99420.53;;;11.75;60.25
40155;BME280;25875;48.202;16.334;2023-02-18T06:03:30;99460.16;;;11.94;60.36
40155;BME280;25875;48.202;16.334;2023-02-18T06:05:57;99463.56;;;11.96;60.34
40155;BME280;25875;48.202;16.334;2023-02-18T06:08:24;99459.97;;;11.97;60.34
40155;BME280;25875;48.202;16.334;2023-02-18T06:10:52;99465.28;;;11.97;60.68
40155;BME280;25875;48.202;16.334;2023-02-18T06:13:19;99431.66;;;11.81;60.78
40155;BME280;25875;48.202;16.334;2023-02-18T06:15:48;99456.38;;;11.98;60.66
40155;BME280;25875;48.202;16.334;2023-02-18T06:18:15;99453.03;;;11.94;60.89
40155;BME280;25875;48.202;16.334;2023-02-18T06:20:42;99463.56;;;11.96;60.43
40155;BME280;25875;48.202;16.334;2023-02-18T06:23:09;99473.25;;;11.97;60.45
40155;BME280;25875;48.202;16.334;2023-02-18T06:25:35;99473.34;;;11.95;60.51
40155;BME280;25875;48.202;16.334;2023-02-18T06:28:04;99462.72;;;11.95;60.92
40155;BME280;25875;48.202;16.334;2023-02-18T06:30:30;99461.09;;;11.93;60.78
40155;BME280;25875;48.202;16.334;2023-02-18T06:32:57;99474.28;;;11.94;60.79
40155;BME280;25875;48.202;16.334;2023-02-18T06:35:24;99447.69;;;11.80;61.11
40155;BME280;25875;48.202;16.334;2023-02-18T06:37:51;99464.59;;;11.93;60.95
40155;BME280;25875;48.202;16.334;2023-02-18T06:40:18;99461.94;;;11.93;61.08
40155;BME280;25875;48.202;16.334;2023-02-18T06:42:45;99451.22;;;11.95;60.87
40155;BME280;25875;48.202;16.334;2023-02-18T06:45:13;99463.66;;;11.94;61.08
40155;BME280;25875;48.202;16.334;2023-02-18T06:47:40;99468.88;;;11.96;60.91
40155;BME280;25875;48.202;16.334;2023-02-18T06:50:07;99467.94;;;11.97;61.33
40155;BME280;25875;48.202;16.334;2023-02-18T06:52:34;99423.28;;;11.73;61.25
40155;BME280;25875;48.202;16.334;2023-02-18T06:55:03;99455.59;;;11.96;61.04
40155;BME280;25875;48.202;16.334;2023-02-18T06:57:30;99461.75;;;11.96;61.04
40155;BME280;25875;48.202;16.334;2023-02-18T06:59:57;99463.56;;;11.96;61.31
40155;BME280;25875;48.202;16.334;2023-02-18T07:02:25;99464.31;;;11.98;61.06
40155;BME280;25875;48.202;16.334;2023-02-18T07:04:52;99453.72;;;11.98;61.19
40155;BME280;25875;48.202;16.334;2023-02-18T07:07:19;99451.06;;;11.98;61.13
40155;BME280;25875;48.202;16.334;2023-02-18T07:09:46;99453.72;;;11.98;61.17
40155;BME280;25875;48.202;16.334;2023-02-18T07:12:13;99451.91;;;11.98;61.06
40155;BME280;25875;48.202;16.334;2023-02-18T07:14:40;99458.06;;;11.99;61.38
40155;BME280;25875;48.202;16.334;2023-02-18T07:17:08;99451.91;;;11.98;61.53
40155;BME280;25875;48.202;16.334;2023-02-18T07:19:36;99412.75;;;11.72;61.30
40155;BME280;25875;48.202;16.334;2023-02-18T07:22:03;99460.59;;;12.02;61.17
40155;BME280;25875;48.202;16.334;2023-02-18T07:24:30;99454.41;;;12.01;61.59
40155;BME280;25875;48.202;16.334;2023-02-18T07:26:57;99443.78;;;12.01;61.42
40155;BME280;25875;48.202;16.334;2023-02-18T07:29:23;99449.94;;;12.02;61.49
40155;BME280;25875;48.202;16.334;2023-02-18T07:31:50;99471.28;;;12.00;61.71
40155;BME280;25875;48.202;16.334;2023-02-18T07:34:18;99443.78;;;12.01;61.67
40155;BME280;25875;48.202;16.334;2023-02-18T07:36:47;99417.25;;;11.85;61.40
40155;BME280;25875;48.202;16.334;2023-02-18T07:39:13;99447.97;;;12.05;61.53
40155;BME280;25875;48.202;16.334;2023-02-18T07:41:40;99437.94;;;11.95;61.54
40155;BME280;25875;48.202;16.334;2023-02-18T07:44:07;99459.28;;;12.09;61.66
40155;BME280;25875;48.202;16.334;2023-02-18T07:46:34;99396.38;;;11.79;61.83
40155;BME280;25875;48.202;16.334;2023-02-18T07:49:00;99453.78;;;12.12;61.57
40155;BME280;25875;48.202;16.334;2023-02-18T07:51:27;99472.38;;;12.12;61.64
40155;BME280;25875;48.202;16.334;2023-02-18T07:53:55;99462.50;;;12.14;61.56
40155;BME280;25875;48.202;16.334;2023-02-18T07:56:22;99470.47;;;12.14;61.80
40155;BME280;25875;48.202;16.334;2023-02-18T07:58:49;99422.00;;;11.95;61.89
40155;BME280;25875;48.202;16.334;2023-02-18T08:01:16;99466.00;;;12.14;61.94
40155;BME280;25875;48.202;16.334;2023-02-18T08:03:43;99462.59;;;12.12;61.90
40155;BME280;25875;48.202;16.334;2023-02-18T08:06:20;99463.28;;;12.16;62.00
40155;BME280;25875;48.202;16.334;2023-02-18T08:08:47;99457.03;;;12.17;62.05
40155;BME280;25875;48.202;16.334;2023-02-18T08:11:15;99436.78;;;12.14;61.94
40155;BME280;25875;48.202;16.334;2023-02-18T08:13:42;99455.16;;;12.19;61.74
40155;BME280;25875;48.202;16.334;2023-02-18T08:16:09;99463.03;;;12.21;61.87
40155;BME280;25875;48.202;16.334;2023-02-18T08:18:36;99429.09;;;12.10;61.76
40155;BME280;25875;48.202;16.334;2023-02-18T08:21:03;99401.63;;;11.95;62.08
40155;BME280;25875;48.202;16.334;2023-02-18T08:23:29;99448.03;;;12.19;62.01
40155;BME280;25875;48.202;16.334;2023-02-18T08:25:56;99450.59;;;12.21;61.81
40155;BME280;25875;48.202;16.334;2023-02-18T08:28:25;99437.50;;;12.18;62.09
40155;BME280;25875;48.202;16.334;2023-02-18T08:30:53;99442.44;;;12.24;61.93
40155;BME280;25875;48.202;16.334;2023-02-18T08:33:21;99445.09;;;12.24;62.12
40155;BME280;25875;48.202;16.334;2023-02-18T08:35:49;99445.84;;;12.26;61.95
40155;BME280;25875;48.202;16.334;2023-02-18T08:38:16;99450.31;;;12.26;62.21
40155;BME280;25875;48.202;16.334;2023-02-18T08:40:43;99437.88;;;12.26;62.04
40155;BME280;25875;48.202;16.334;2023-02-18T08:43:10;99443.97;;;12.28;62.30
40155;BME280;25875;48.202;16.334;2023-02-18T08:45:39;99446.53;;;12.30;62.09
40155;BME280;25875;48.202;16.334;2023-02-18T08:48:06;99445.66;;;12.29;62.07
40155;BME280;25875;48.202;16.334;2023-02-18T08:50:34;99406.81;;;12.12;62.22
40155;BME280;25875;48.202;16.334;2023-02-18T08:53:01;99443.97;;;12.28;62.45
40155;BME280;25875;48.202;16.334;2023-02-18T08:55:28;99427.94;;;12.30;62.22
40155;BME280;25875;48.202;16.334;2023-02-18T08:57:54;99437.59;;;12.31;62.10
40155;BME280;25875;48.202;16.334;2023-02-18T09:00:22;99421.56;;;12.32;62.06
40155;BME280;25875;48.202;16.334;2023-02-18T09:02:51;99423.56;;;12.29;62.20
40155;BME280;25875;48.202;16.334;2023-02-18T09:05:17;99445.66;;;12.29;62.18
40155;BME280;25875;48.202;16.334;2023-02-18T09:07:44;99324.75;;;11.64;62.46
40155;BME280;25875;48.202;16.334;2023-02-18T09:10:11;99428.69;;;12.32;62.39
40155;BME280;25875;48.202;16.334;2023-02-18T09:12:38;99438.38;;;12.33;62.12
40155;BME280;25875;48.202;16.334;2023-02-18T09:15:05;99424.97;;;12.34;62.37
40155;BME280;25875;48.202;16.334;2023-02-18T09:17:32;99419.66;;;12.34;62.22
40155;BME280;25875;48.202;16.334;2023-02-18T09:20:01;99411.59;;;12.36;62.36
40155;BME280;25875;48.202;16.334;2023-02-18T09:22:28;99402.59;;;12.38;62.15
40155;BME280;25875;48.202;16.334;2023-02-18T09:24:57;99374.13;;;12.26;62.10
40155;BME280;25875;48.202;16.334;2023-02-18T09:27:24;99410.28;;;12.43;61.77
40155;BME280;25875;48.202;16.334;2023-02-18T09:29:51;99398.97;;;12.39;61.73
40155;BME280;25875;48.202;16.334;2023-02-18T09:32:18;99413.69;;;12.45;61.65
40155;BME280;25875;48.202;16.334;2023-02-18T09:34:45;99373.25;;;12.26;61.88
40155;BME280;25875;48.202;16.334;2023-02-18T09:37:13;99391.75;;;12.27;61.99
40155;BME280;25875;48.202;16.334;2023-02-18T09:39:40;99389.00;;;12.29;61.95
40155;BME280;25875;48.202;16.334;2023-02-18T09:42:11;99421.38;;;12.49;62.06
40155;BME280;25875;48.202;16.334;2023-02-18T09:44:42;99403.72;;;12.48;61.98
40155;BME280;25875;48.202;16.334;2023-02-18T09:47:12;99412.56;;;12.49;62.06
40155;BME280;25875;48.202;16.334;2023-02-18T09:49:44;99393.28;;;12.45;61.64
40155;BME280;25875;48.202;16.334;2023-02-18T09:52:17;99426.59;;;12.51;62.04
40155;BME280;25875;48.202;16.334;2023-02-18T09:54:45;99412.38;;;12.52;61.86
40155;BME280;25875;48.202;16.334;2023-02-18T09:57:20;99403.44;;;12.53;61.48
40155;BME280;25875;48.202;16.334;2023-02-18T09:59:56;99394.59;;;12.52;61.54
40155;BME280;25875;48.202;16.334;2023-02-18T10:02:27;99407.81;;;12.54;61.51
40155;BME280;25875;48.202;16.334;2023-02-18T10:04:55;99402.41;;;12.56;61.46
40155;BME280;25875;48.202;16.334;2023-02-18T10:07:28;99408.47;;;12.58;61.64
40155;BME280;25875;48.202;16.334;2023-02-18T10:10:00;99400.31;;;12.61;61.40
40155;BME280;25875;48.202;16.334;2023-02-18T10:12:29;99399.44;;;12.60;61.40
40155;BME280;25875;48.202;16.334;2023-02-18T10:14:59;99397.53;;;12.62;61.36
40155;BME280;25875;48.202;16.334;2023-02-18T10:17:29;99353.13;;;12.36;61.26
40155;BME280;25875;48.202;16.334;2023-02-18T10:19:59;99401.25;;;12.60;61.37
40155;BME280;25875;48.202;16.334;2023-02-18T10:22:30;99393.09;;;12.63;61.16
40155;BME280;25875;48.202;16.334;2023-02-18T10:24:59;99411.69;;;12.63;61.15
40155;BME280;25875;48.202;16.334;2023-02-18T10:27:29;99405.16;;;12.54;60.77
40155;BME280;25875;48.202;16.334;2023-02-18T10:30:01;99414.34;;;12.63;60.95
40155;BME280;25875;48.202;16.334;2023-02-18T10:32:37;99400.09;;;12.64;60.93
40155;BME280;25875;48.202;16.334;2023-02-18T10:35:14;99388.44;;;12.66;60.49
40155;BME280;25875;48.202;16.334;2023-02-18T10:37:56;99401.72;;;12.66;60.40
40155;BME280;25875;48.202;16.334;2023-02-18T10:40:32;99290.38;;;12.05;60.41
40155;BME280;25875;48.202;16.334;2023-02-18T10:43:06;99360.41;;;12.61;59.91
40155;BME280;25875;48.202;16.334;2023-02-18T10:45:43;99383.00;;;12.82;60.07
40155;BME280;25875;48.202;16.334;2023-02-18T10:48:25;99383.66;;;12.86;59.56
40155;BME280;25875;48.202;16.334;2023-02-18T10:50:57;99385.16;;;12.90;59.70
40155;BME280;25875;48.202;16.334;2023-02-18T10:53:32;99360.06;;;12.94;59.74
40155;BME280;25875;48.202;16.334;2023-02-18T10:55:59;99367.75;;;12.98;59.88
40155;BME280;25875;48.202;16.334;2023-02-18T10:58:30;99353.50;;;12.99;59.42
40155;BME280;25875;48.202;16.334;2023-02-18T11:00:59;99334.97;;;12.98;59.49
40155;BME280;25875;48.202;16.334;2023-02-18T11:03:39;99293.16;;;12.73;59.03
40155;BME280;25875;48.202;16.334;2023-02-18T11:06:15;99316.84;;;12.90;59.17
40155;BME280;25875;48.202;16.334;2023-02-18T11:08:47;99351.63;;;13.14;59.12
40155;BME280;25875;48.202;16.334;2023-02-18T11:11:20;99285.19;;;12.73;58.56
40155;BME280;25875;48.202;16.334;2023-02-18T11:13:52;99297.03;;;13.08;58.41
40155;BME280;25875;48.202;16.334;2023-02-18T11:16:21;99331.38;;;13.38;57.92
40155;BME280;25875;48.202;16.334;2023-02-18T11:18:48;99237.25;;;12.87;58.04
40155;BME280;25875;48.202;16.334;2023-02-18T11:21:23;99311.31;;;13.47;57.83
40155;BME280;25875;48.202;16.334;2023-02-18T11:23:54;99259.91;;;13.20;57.25
40155;BME280;25875;48.202;16.334;2023-02-18T11:26:26;99209.91;;;12.85;57.32
40155;BME280;25875;48.202;16.334;2023-02-18T11:28:59;99254.81;;;13.29;57.46
40155;BME280;25875;48.202;16.334;2023-02-18T11:31:37;99328.03;;;13.49;56.65
40155;BME280;25875;48.202;16.334;2023-02-18T11:34:05;99310.13;;;13.51;57.72
40155;BME280;25875;48.202;16.334;2023-02-18T11:36:40;99256.38;;;13.19;57.57
40155;BME280;25875;48.202;16.334;2023-02-18T11:39:17;99308.88;;;13.57;56.49
40155;BME280;25875;48.202;16.334;2023-02-18T11:41:47;99289.28;;;13.58;57.29
40155;BME280;25875;48.202;16.334;2023-02-18T11:44:20;99300.03;;;13.56;56.53
40155;BME280;25875;48.202;16.334;2023-02-18T11:47:00;99280.66;;;13.54;56.41
40155;BME280;25875;48.202;16.334;2023-02-18T11:49:29;99273.63;;;13.53;57.32
40155;BME280;25875;48.202;16.334;2023-02-18T11:52:14;99283.19;;;13.56;56.02
40155;BME280;25875;48.202;16.334;2023-02-18T11:54:59;99256.94;;;13.37;56.00
40155;BME280;25875;48.202;16.334;2023-02-18T11:57:29;99282.56;;;13.52;56.25
40155;BME280;25875;48.202;16.334;2023-02-18T11:59:57;99217.75;;;13.13;56.43
40155;BME280;25875;48.202;16.334;2023-02-18T12:02:30;99279.16;;;13.50;56.16
40155;BME280;25875;48.202;16.334;2023-02-18T12:05:02;99237.88;;;13.30;56.13
40155;BME280;25875;48.202;16.334;2023-02-18T12:07:33;99258.69;;;13.51;56.46
40155;BME280;25875;48.202;16.334;2023-02-18T12:10:11;99242.41;;;13.55;55.95
40155;BME280;25875;48.202;16.334;2023-02-18T12:12:44;99237.84;;;13.70;55.74
40155;BME280;25875;48.202;16.334;2023-02-18T12:15:16;99225.25;;;13.85;55.38
40155;BME280;25875;48.202;16.334;2023-02-18T12:17:53;99214.88;;;14.05;54.20
40155;BME280;25875;48.202;16.334;2023-02-18T12:23:16;99145.22;;;13.86;53.36
40155;BME280;25875;48.202;16.334;2023-02-18T12:25:56;99139.88;;;13.99;53.18
40155;BME280;25875;48.202;16.334;2023-02-18T12:28:40;99188.28;;;14.53;53.40
40155;BME280;25875;48.202;16.334;2023-02-18T12:31:37;99196.50;;;14.63;52.37
40155;BME280;25875;48.202;16.334;2023-02-18T12:34:20;99177.53;;;14.79;52.50
40155;BME280;25875;48.202;16.334;2023-02-18T12:36:59;99168.00;;;14.87;51.52
40155;BME280;25875;48.202;16.334;2023-02-18T12:39:42;99175.03;;;14.88;51.27
40155;BME280;25875;48.202;16.334;2023-02-18T12:42:36;99162.31;;;14.92;51.35
40155;BME280;25875;48.202;16.334;2023-02-18T12:45:26;99178.22;;;14.93;50.45
40155;BME280;25875;48.202;16.334;2023-02-18T12:48:39;99167.91;;;15.00;49.67
40155;BME280;25875;48.202;16.334;2023-02-18T12:51:25;99042.78;;;14.38;50.26
40155;BME280;25875;48.202;16.334;2023-02-18T12:54:13;99183.19;;;14.98;49.49
40155;BME280;25875;48.202;16.334;2023-02-18T12:57:01;99140.66;;;15.07;50.16
40155;BME280;25875;48.202;16.334;2023-02-18T12:59:58;99100.69;;;14.84;49.09
40155;BME280;25875;48.202;16.334;2023-02-18T13:02:47;99132.66;;;15.30;49.59
40155;BME280;25875;48.202;16.334;2023-02-18T13:05:28;99111.78;;;15.13;49.44
40155;BME280;25875;48.202;16.334;2023-02-18T13:08:09;99127.22;;;15.54;48.38
40155;BME280;25875;48.202;16.334;2023-02-18T13:10:59;99123.34;;;15.58;48.32
40155;BME280;25875;48.202;16.334;2023-02-18T13:13:31;99123.59;;;15.55;49.89
40155;BME280;25875;48.202;16.334;2023-02-18T13:16:03;99127.94;;;15.45;48.64